Time;durP1;ratioP1;P1;durP2;ratioP2;P2;SDS_P1;SDS_P2;PMS_P1;PMS_P2;Temp;Humidity;BMP_temperature;BMP_pressure;BME280_temperature;BME280_humidity;BME280_pressure;Samples;Min_cycle;Max_cycle;Signal;HPM_P1;HPM_P2
2021/05/22 00:00:58;;;;;;;10.67;3.40;;;11.50;99.90;;;;;;5061038;28;20225;-83
2021/05/22 00:03:24;;;;;;;10.90;3.30;;;11.50;99.90;;;;;;5056881;28;20245;-83
2021/05/22 00:05:50;;;;;;;10.23;3.17;;;11.50;99.90;;;;;;5093524;28;20214;-83
2021/05/22 00:08:15;;;;;;;9.80;2.73;;;11.50;99.90;;;;;;5079107;28;20271;-82
2021/05/22 00:10:41;;;;;;;7.77;2.20;;;11.50;99.90;;;;;;5077431;28;20256;-83
2021/05/22 00:13:08;;;;;;;9.83;2.37;;;11.50;99.90;;;;;;5074833;28;20187;-83
2021/05/22 00:15:34;;;;;;;8.37;2.43;;;11.50;99.90;;;;;;5090143;28;20203;-84
2021/05/22 00:17:59;;;;;;;12.03;2.47;;;11.50;99.90;;;;;;5074205;28;20182;-83
2021/05/22 00:20:25;;;;;;;9.57;2.60;;;11.50;99.90;;;;;;5089223;28;20184;-84
2021/05/22 00:22:51;;;;;;;8.23;1.90;;;11.70;99.90;;;;;;5060541;28;20203;-82
2021/05/22 00:25:17;;;;;;;10.47;2.00;;;11.80;99.90;;;;;;5062759;28;20266;-82
2021/05/22 00:27:42;;;;;;;9.80;1.97;;;11.90;99.90;;;;;;5074145;28;20680;-82
2021/05/22 00:30:10;;;;;;;7.10;1.83;;;12.00;99.90;;;;;;5058925;28;20599;-82
2021/05/22 00:32:36;;;;;;;12.07;2.00;;;12.10;99.90;;;;;;5074623;28;20711;-82
2021/05/22 00:35:02;;;;;;;8.80;1.90;;;12.20;99.90;;;;;;5059855;28;20230;-83
2021/05/22 00:37:28;;;;;;;11.63;3.13;;;12.20;99.90;;;;;;5075435;28;20215;-83
2021/05/22 00:39:54;;;;;;;10.27;2.80;;;12.10;99.90;;;;;;5058742;28;20238;-83
2021/05/22 00:42:19;;;;;;;9.63;2.97;;;12.10;99.90;;;;;;5075265;28;20211;-82
2021/05/22 00:45:06;;;;;;;8.97;2.57;;;12.00;99.90;;;;;;5074283;28;20209;-82
2021/05/22 00:47:32;;;;;;;10.37;2.97;;;12.10;99.90;;;;;;5056769;28;20662;-83
2021/05/22 00:49:58;;;;;;;8.60;2.50;;;12.20;99.90;;;;;;5053981;28;20214;-83
2021/05/22 00:52:25;;;;;;;8.93;2.40;;;12.20;99.90;;;;;;5072699;28;20885;-83
2021/05/22 00:54:50;;;;;;;9.03;2.73;;;12.30;99.90;;;;;;5057243;28;20204;-82
2021/05/22 00:57:17;;;;;;;10.33;2.60;;;12.30;99.90;;;;;;5087591;28;20732;-83
2021/05/22 00:59:43;;;;;;;8.90;2.53;;;12.20;99.90;;;;;;5060336;28;20184;-82
2021/05/22 01:02:20;;;;;;;8.83;3.47;;;12.20;99.90;;;;;;5070100;28;20250;-82
2021/05/22 01:04:45;;;;;;;13.07;4.10;;;12.20;99.90;;;;;;5089993;28;20628;-83
2021/05/22 01:07:11;;;;;;;13.87;5.30;;;12.20;99.90;;;;;;5061489;28;20206;-83
2021/05/22 01:09:40;;;;;;;14.10;3.93;;;12.20;99.90;;;;;;5075240;28;20255;-83
2021/05/22 01:12:08;;;;;;;9.60;2.80;;;12.10;99.90;;;;;;5059056;28;20195;-83
2021/05/22 01:14:44;;;;;;;12.03;2.43;;;12.00;99.90;;;;;;5075400;28;20210;-83
2021/05/22 01:17:11;;;;;;;9.30;2.20;;;12.00;99.90;;;;;;5060804;28;20590;-84
2021/05/22 01:19:59;;;;;;;9.13;2.77;;;12.00;99.90;;;;;;5073854;28;20178;-83
2021/05/22 01:22:27;;;;;;;8.30;2.67;;;12.00;99.90;;;;;;5076117;28;20300;-83
2021/05/22 01:25:00;;;;;;;11.17;2.90;;;12.00;99.90;;;;;;5087120;28;20666;-84
2021/05/22 01:27:25;;;;;;;10.97;3.23;;;12.00;99.90;;;;;;5059088;28;20202;-84
2021/05/22 01:29:52;;;;;;;10.10;2.60;;;12.00;99.90;;;;;;5073091;28;20552;-82
2021/05/22 01:32:18;;;;;;;11.80;3.30;;;12.00;99.90;;;;;;5057973;28;20209;-83
2021/05/22 01:34:44;;;;;;;12.03;3.00;;;12.10;99.90;;;;;;5092157;28;20665;-84
2021/05/22 01:37:10;;;;;;;13.13;2.67;;;12.20;99.90;;;;;;5057846;28;20297;-84
2021/05/22 01:39:35;;;;;;;12.80;2.63;;;12.20;99.90;;;;;;5074826;28;20219;-84
2021/05/22 01:42:02;;;;;;;12.13;3.07;;;12.10;99.90;;;;;;5055091;28;20199;-83
2021/05/22 01:44:32;;;;;;;13.80;3.83;;;12.20;99.90;;;;;;5068477;28;20659;-83
2021/05/22 01:46:59;;;;;;;16.37;4.30;;;12.30;99.90;;;;;;5071345;28;21079;-83
2021/05/22 01:49:27;;;;;;;15.03;4.40;;;12.30;99.90;;;;;;5075348;28;20188;-83
2021/05/22 01:51:56;;;;;;;17.50;5.10;;;12.40;99.90;;;;;;5056269;28;20192;-84
2021/05/22 01:54:23;;;;;;;16.47;4.93;;;12.30;99.90;;;;;;5083134;28;20199;-83
2021/05/22 01:56:50;;;;;;;15.63;4.67;;;12.30;99.90;;;;;;5055489;28;20186;-83
2021/05/22 01:59:17;;;;;;;14.93;4.17;;;12.20;99.90;;;;;;5053965;28;20173;-83
2021/05/22 02:01:48;;;;;;;15.63;4.27;;;12.10;99.90;;;;;;5056444;28;20237;-83
2021/05/22 02:04:14;;;;;;;15.60;4.07;;;12.00;99.90;;;;;;5071637;28;20190;-83
2021/05/22 02:06:43;;;;;;;14.40;3.93;;;12.10;99.90;;;;;;5089495;28;20192;-84
2021/05/22 02:09:12;;;;;;;15.63;4.27;;;12.20;99.90;;;;;;5070610;28;20215;-83
2021/05/22 02:11:40;;;;;;;15.30;3.90;;;12.20;99.90;;;;;;5090891;28;20210;-83
2021/05/22 02:14:07;;;;;;;17.53;3.90;;;12.10;99.90;;;;;;5087882;28;20692;-83
2021/05/22 02:16:38;;;;;;;11.63;3.10;;;12.20;99.90;;;;;;5055024;28;20184;-82
2021/05/22 02:19:08;;;;;;;14.50;3.27;;;12.30;99.90;;;;;;5061629;28;20178;-83
2021/05/22 02:21:38;;;;;;;14.63;2.63;;;12.40;99.90;;;;;;5058815;28;20179;-82
2021/05/22 02:24:04;;;;;;;10.50;2.20;;;12.40;99.90;;;;;;5058017;28;20708;-83
2021/05/22 02:26:30;;;;;;;13.77;2.03;;;12.40;99.90;;;;;;5074844;28;20188;-84
2021/05/22 02:28:57;;;;;;;9.43;1.37;;;12.40;99.90;;;;;;5055857;28;20569;-83
2021/05/22 02:31:27;;;;;;;13.97;1.57;;;12.40;99.90;;;;;;5055622;28;20210;-83
2021/05/22 02:33:56;;;;;;;8.67;1.30;;;12.40;99.90;;;;;;5075812;28;20190;-82
2021/05/22 02:36:23;;;;;;;8.80;1.77;;;12.40;99.90;;;;;;5071957;28;20224;-83
2021/05/22 02:38:50;;;;;;;11.27;1.60;;;12.30;99.90;;;;;;5074637;28;20178;-83
2021/05/22 02:41:17;;;;;;;9.87;1.30;;;12.30;99.90;;;;;;5061426;28;20457;-83
2021/05/22 02:43:47;;;;;;;9.47;1.40;;;12.40;99.90;;;;;;5056796;28;20196;-83
2021/05/22 02:46:15;;;;;;;15.47;1.53;;;12.30;99.90;;;;;;5089412;28;20187;-83
2021/05/22 02:48:42;;;;;;;12.80;1.50;;;12.30;99.90;;;;;;5058226;28;20213;-83
2021/05/22 02:51:10;;;;;;;10.90;1.47;;;12.30;99.90;;;;;;5073712;28;20642;-83
2021/05/22 02:53:37;;;;;;;7.33;1.30;;;12.20;99.90;;;;;;5082007;28;20184;-84
2021/05/22 02:56:05;;;;;;;10.77;1.70;;;12.30;99.90;;;;;;5075852;28;20211;-84
2021/05/22 02:58:35;;;;;;;10.83;1.50;;;12.30;99.90;;;;;;5078797;28;20196;-83
2021/05/22 03:01:01;;;;;;;13.93;1.73;;;12.30;99.90;;;;;;5056452;28;20183;-83
2021/05/22 03:03:27;;;;;;;16.63;1.63;;;12.30;99.90;;;;;;5076560;28;20184;-83
2021/05/22 03:05:53;;;;;;;10.23;1.73;;;12.20;99.90;;;;;;5078700;28;20274;-83
2021/05/22 03:08:19;;;;;;;10.13;1.80;;;12.20;99.90;;;;;;5075457;28;20616;-84
2021/05/22 03:10:45;;;;;;;13.10;1.70;;;12.30;99.90;;;;;;5078185;28;20187;-83
2021/05/22 03:13:11;;;;;;;10.77;1.73;;;12.20;99.90;;;;;;5072324;28;20229;-83
2021/05/22 03:15:37;;;;;;;14.33;1.80;;;12.30;99.90;;;;;;5062134;28;20243;-83
2021/05/22 03:18:03;;;;;;;14.30;1.50;;;12.30;99.90;;;;;;5059347;28;20179;-83
2021/05/22 03:20:28;;;;;;;12.50;1.70;;;12.30;99.90;;;;;;5076710;28;20301;-82
2021/05/22 03:22:54;;;;;;;14.73;2.53;;;12.30;99.90;;;;;;5061534;28;20708;-83
2021/05/22 03:25:20;;;;;;;10.10;1.50;;;12.30;99.90;;;;;;5074414;28;20266;-84
2021/05/22 03:27:45;;;;;;;12.73;1.57;;;12.30;99.90;;;;;;5062703;28;20195;-83
2021/05/22 03:30:12;;;;;;;10.77;1.50;;;12.20;99.90;;;;;;5077196;28;20187;-83
2021/05/22 03:32:37;;;;;;;12.33;1.93;;;12.10;99.90;;;;;;5060250;28;20184;-83
2021/05/22 03:35:04;;;;;;;12.97;1.77;;;12.20;99.90;;;;;;5061220;28;20195;-84
2021/05/22 03:37:30;;;;;;;11.13;1.47;;;12.30;99.90;;;;;;5061259;28;20224;-82
2021/05/22 03:39:56;;;;;;;10.40;1.83;;;12.30;99.90;;;;;;5076140;28;20268;-84
2021/05/22 03:42:21;;;;;;;12.57;1.83;;;12.20;99.90;;;;;;5058586;28;20208;-84
2021/05/22 03:44:47;;;;;;;13.27;1.70;;;12.20;99.90;;;;;;5095393;28;20188;-84
2021/05/22 03:47:13;;;;;;;10.87;1.60;;;12.10;99.90;;;;;;5094676;28;20171;-83
2021/05/22 03:49:38;;;;;;;11.70;1.77;;;12.10;99.90;;;;;;5061126;28;20192;-84
2021/05/22 03:52:05;;;;;;;8.83;1.83;;;12.10;99.90;;;;;;5071692;28;20179;-81
2021/05/22 03:54:30;;;;;;;10.20;1.53;;;12.20;99.90;;;;;;5071709;28;20260;-82
2021/05/22 03:56:56;;;;;;;13.80;1.70;;;12.20;99.90;;;;;;5077086;28;20666;-83
2021/05/22 03:59:22;;;;;;;13.20;1.53;;;12.30;99.90;;;;;;5076721;28;20646;-83
2021/05/22 04:01:48;;;;;;;9.50;1.67;;;12.20;99.90;;;;;;5055401;28;20181;-83
2021/05/22 04:04:13;;;;;;;10.87;1.73;;;12.20;99.90;;;;;;5057351;28;20638;-82
2021/05/22 04:06:39;;;;;;;9.47;1.60;;;12.30;99.90;;;;;;5071567;28;20187;-83
2021/05/22 04:09:05;;;;;;;12.87;1.93;;;12.30;99.90;;;;;;5056939;28;20196;-83
2021/05/22 04:11:30;;;;;;;8.73;1.50;;;12.40;99.90;;;;;;5055732;28;20216;-83
2021/05/22 04:13:56;;;;;;;8.80;1.53;;;12.30;99.90;;;;;;5071125;28;20583;-83
2021/05/22 04:16:22;;;;;;;10.97;1.50;;;12.30;99.90;;;;;;5073923;28;20206;-84
2021/05/22 04:18:47;;;;;;;13.43;1.77;;;12.20;99.90;;;;;;5073261;28;20191;-83
2021/05/22 04:21:13;;;;;;;7.90;1.30;;;12.20;99.90;;;;;;5059389;28;20192;-83
2021/05/22 04:23:40;;;;;;;10.20;1.60;;;12.20;99.90;;;;;;5054350;28;20205;-83
2021/05/22 04:26:06;;;;;;;10.53;1.60;;;12.00;99.90;;;;;;5078033;28;20179;-84
2021/05/22 04:28:32;;;;;;;10.67;1.80;;;12.00;99.90;;;;;;5088527;28;20184;-82
2021/05/22 04:30:58;;;;;;;10.70;1.43;;;11.90;99.90;;;;;;5076671;28;20254;-83
2021/05/22 04:33:23;;;;;;;8.87;1.40;;;12.00;99.90;;;;;;5061339;28;20171;-83
2021/05/22 04:35:49;;;;;;;12.27;1.73;;;12.10;99.90;;;;;;5074001;28;20229;-83
2021/05/22 04:38:15;;;;;;;11.20;2.00;;;12.10;99.90;;;;;;5094246;28;20224;-84
2021/05/22 04:40:41;;;;;;;9.10;1.97;;;12.20;99.90;;;;;;5072918;28;20188;-83
2021/05/22 04:43:07;;;;;;;10.33;2.00;;;12.20;99.90;;;;;;5055093;28;20187;-84
2021/05/22 04:45:34;;;;;;;11.00;2.33;;;12.20;99.90;;;;;;5077149;28;20233;-83
2021/05/22 04:47:59;;;;;;;7.40;1.63;;;12.20;99.90;;;;;;5059146;28;20225;-83
2021/05/22 04:50:28;;;;;;;10.47;1.57;;;12.10;99.90;;;;;;5074334;28;20187;-82
2021/05/22 04:52:53;;;;;;;9.97;1.90;;;12.20;99.90;;;;;;5054266;28;20651;-82
2021/05/22 04:55:19;;;;;;;11.47;1.63;;;12.20;99.90;;;;;;5074589;28;20286;-83
2021/05/22 04:57:45;;;;;;;11.63;1.77;;;12.10;99.90;;;;;;5055621;28;20180;-83
2021/05/22 05:00:11;;;;;;;9.50;1.50;;;12.20;99.90;;;;;;5059670;28;20182;-83
2021/05/22 05:02:37;;;;;;;9.70;1.93;;;12.20;99.90;;;;;;5055378;28;20182;-82
2021/05/22 05:05:03;;;;;;;11.93;1.50;;;12.20;99.90;;;;;;5093618;28;20188;-83
2021/05/22 05:07:29;;;;;;;7.47;1.60;;;12.00;99.90;;;;;;5060098;28;20214;-82
2021/05/22 05:09:54;;;;;;;10.87;1.70;;;12.00;99.90;;;;;;5063436;28;20973;-84
2021/05/22 05:12:21;;;;;;;9.20;1.43;;;12.10;99.90;;;;;;5075370;28;20188;-83
2021/05/22 05:14:47;;;;;;;14.07;4.40;;;12.20;99.90;;;;;;5068986;28;20211;-85
2021/05/22 05:17:13;;;;;;;10.90;1.70;;;12.20;99.90;;;;;;5071049;28;20180;-84
2021/05/22 05:19:39;;;;;;;11.20;1.70;;;12.20;99.90;;;;;;5076806;28;20202;-84
2021/05/22 05:22:04;;;;;;;11.10;1.70;;;12.20;99.90;;;;;;5071952;28;20690;-83
2021/05/22 05:24:30;;;;;;;11.97;1.70;;;12.20;99.90;;;;;;5056789;28;20218;-83
2021/05/22 05:26:56;;;;;;;14.37;1.93;;;12.30;99.90;;;;;;5087231;28;20196;-83
2021/05/22 05:29:21;;;;;;;9.83;1.80;;;12.20;99.90;;;;;;5074163;28;20186;-84
2021/05/22 05:31:49;;;;;;;11.10;1.60;;;12.10;99.90;;;;;;5084026;28;20180;-83
2021/05/22 05:34:14;;;;;;;11.50;1.60;;;12.10;99.90;;;;;;5058747;28;20226;-83
2021/05/22 05:36:40;;;;;;;9.80;1.23;;;12.10;99.90;;;;;;5094552;28;20254;-82
2021/05/22 05:39:06;;;;;;;8.30;1.70;;;12.10;99.90;;;;;;5056542;28;20372;-81
2021/05/22 05:41:32;;;;;;;13.23;2.10;;;12.10;99.90;;;;;;5059877;28;20168;-82
2021/05/22 05:43:58;;;;;;;15.43;1.70;;;12.10;99.90;;;;;;5072670;28;20219;-82
2021/05/22 05:46:24;;;;;;;8.87;1.80;;;11.90;99.90;;;;;;5075205;28;20218;-82
2021/05/22 05:48:49;;;;;;;15.53;1.90;;;11.90;99.90;;;;;;5054341;28;20191;-83
2021/05/22 05:51:15;;;;;;;12.70;1.90;;;11.90;99.90;;;;;;5076607;28;20192;-83
2021/05/22 05:53:41;;;;;;;18.97;1.80;;;12.00;99.90;;;;;;5072022;28;20681;-82
2021/05/22 05:56:06;;;;;;;11.07;1.40;;;12.00;99.90;;;;;;5067079;28;20557;-82
2021/05/22 05:58:33;;;;;;;20.40;1.90;;;11.90;99.90;;;;;;5062862;28;20548;-82
2021/05/22 06:00:59;;;;;;;11.93;1.93;;;11.90;99.90;;;;;;5051976;28;20188;-82
2021/05/22 06:03:29;;;;;;;13.13;1.80;;;12.00;99.90;;;;;;5057902;28;20186;-84
2021/05/22 06:05:55;;;;;;;9.43;1.43;;;12.10;99.90;;;;;;5091557;28;20258;-83
2021/05/22 06:08:21;;;;;;;18.90;1.80;;;12.20;99.90;;;;;;5057086;28;20207;-83
2021/05/22 06:10:49;;;;;;;11.53;2.27;;;12.30;99.90;;;;;;5056899;28;20674;-85
2021/05/22 06:13:24;;;;;;;13.97;1.60;;;12.30;99.90;;;;;;5071948;28;20664;-84
2021/05/22 06:15:57;;;;;;;10.93;1.40;;;12.30;99.90;;;;;;5071167;28;20273;-83
2021/05/22 06:18:23;;;;;;;12.23;2.13;;;12.30;99.90;;;;;;5071813;28;20215;-84
2021/05/22 06:20:49;;;;;;;13.43;1.50;;;12.20;99.90;;;;;;5072096;28;20726;-84
2021/05/22 06:23:14;;;;;;;11.87;1.50;;;12.20;99.90;;;;;;5058954;28;20215;-84
2021/05/22 06:25:40;;;;;;;16.47;1.67;;;12.20;99.90;;;;;;5090954;28;20180;-83
2021/05/22 06:28:06;;;;;;;9.80;1.97;;;12.20;99.90;;;;;;5098870;28;20189;-83
2021/05/22 06:30:31;;;;;;;12.70;1.90;;;12.20;99.90;;;;;;5079797;28;20231;-84
2021/05/22 06:32:57;;;;;;;7.73;1.53;;;12.20;99.90;;;;;;5076534;28;20521;-83
2021/05/22 06:35:23;;;;;;;14.33;1.60;;;12.30;99.90;;;;;;5060243;28;20272;-83
2021/05/22 06:37:48;;;;;;;9.90;1.57;;;12.30;99.90;;;;;;5059139;28;20195;-84
2021/05/22 06:40:14;;;;;;;9.33;1.47;;;12.30;99.90;;;;;;5077886;28;20182;-84
2021/05/22 06:42:40;;;;;;;11.37;1.90;;;12.30;99.90;;;;;;5075535;28;20204;-84
2021/05/22 06:45:10;;;;;;;15.90;2.00;;;12.50;99.90;;;;;;5077261;28;20653;-83
2021/05/22 06:47:36;;;;;;;13.00;2.10;;;12.40;99.90;;;;;;5059922;28;20176;-84
2021/05/22 06:50:01;;;;;;;13.47;1.90;;;12.40;99.90;;;;;;5074962;28;20543;-84
2021/05/22 06:52:27;;;;;;;11.67;1.80;;;12.30;99.90;;;;;;5062783;28;20252;-83
2021/05/22 06:54:53;;;;;;;10.87;1.87;;;12.40;99.90;;;;;;5060903;28;20199;-81
2021/05/22 06:57:18;;;;;;;14.57;1.77;;;12.30;99.90;;;;;;5061706;28;20255;-82
2021/05/22 06:59:45;;;;;;;10.30;1.90;;;12.30;99.90;;;;;;5057801;28;20181;-83
2021/05/22 07:02:11;;;;;;;13.93;2.07;;;12.50;99.90;;;;;;5076620;28;20231;-83
2021/05/22 07:04:37;;;;;;;9.47;1.57;;;12.50;99.90;;;;;;5078476;28;21129;-83
2021/05/22 07:07:02;;;;;;;15.27;2.17;;;12.50;99.90;;;;;;5067993;28;20301;-82
2021/05/22 07:09:28;;;;;;;11.77;1.87;;;12.50;99.90;;;;;;5075763;28;20175;-82
2021/05/22 07:11:54;;;;;;;15.13;2.53;;;12.50;99.90;;;;;;5078189;28;20195;-83
2021/05/22 07:14:20;;;;;;;14.17;1.87;;;12.60;99.90;;;;;;5076230;28;20245;-82
2021/05/22 07:16:45;;;;;;;11.50;1.40;;;12.70;99.90;;;;;;5059276;28;20192;-83
2021/05/22 07:19:11;;;;;;;10.07;1.80;;;12.80;99.90;;;;;;5096375;28;20194;-83
2021/05/22 07:21:37;;;;;;;10.43;1.87;;;12.90;99.90;;;;;;5061329;28;20280;-83
2021/05/22 07:24:03;;;;;;;9.80;1.83;;;13.00;99.90;;;;;;5075861;28;20568;-82
2021/05/22 07:26:29;;;;;;;13.17;1.87;;;13.00;99.90;;;;;;5077045;28;20184;-84
2021/05/22 07:28:55;;;;;;;11.53;1.90;;;12.90;99.90;;;;;;5077521;28;20186;-84
2021/05/22 07:31:21;;;;;;;8.80;1.70;;;12.80;99.90;;;;;;5092274;28;20179;-84
2021/05/22 07:33:49;;;;;;;16.73;2.37;;;12.90;99.90;;;;;;5058315;28;20205;-85
2021/05/22 07:36:15;;;;;;;16.00;2.17;;;13.00;99.90;;;;;;5057296;28;20220;-84
2021/05/22 07:38:41;;;;;;;11.40;1.77;;;13.00;99.90;;;;;;5076150;28;21078;-84
2021/05/22 07:41:08;;;;;;;11.10;1.70;;;12.90;99.90;;;;;;5056792;28;20172;-83
2021/05/22 07:43:33;;;;;;;6.33;1.37;;;12.90;99.90;;;;;;5074294;28;20182;-85
2021/05/22 07:45:59;;;;;;;15.47;1.93;;;13.00;99.90;;;;;;5073995;28;20201;-83
2021/05/22 07:48:26;;;;;;;12.30;1.90;;;13.00;99.90;;;;;;5074746;28;20192;-84
2021/05/22 07:50:55;;;;;;;14.00;1.83;;;12.80;99.90;;;;;;5075089;28;20189;-86
2021/05/22 07:53:21;;;;;;;12.70;1.97;;;12.90;99.90;;;;;;5076231;28;20181;-83
2021/05/22 07:55:47;;;;;;;11.33;2.17;;;12.90;99.90;;;;;;5056899;28;20251;-84
2021/05/22 07:58:16;;;;;;;13.77;2.07;;;12.80;99.90;;;;;;5057205;28;20176;-85
2021/05/22 08:00:44;;;;;;;10.33;1.87;;;12.90;99.90;;;;;;5074324;28;20271;-84
2021/05/22 08:03:10;;;;;;;14.03;2.30;;;12.80;99.90;;;;;;5094229;28;20259;-82
2021/05/22 08:05:36;;;;;;;11.60;2.33;;;12.80;99.90;;;;;;5075414;28;20189;-83
2021/05/22 08:08:02;;;;;;;13.10;2.03;;;12.90;99.90;;;;;;5078074;28;20190;-81
2021/05/22 08:10:28;;;;;;;14.37;2.10;;;12.80;99.90;;;;;;5074206;28;20185;-84
2021/05/22 08:12:53;;;;;;;13.90;2.00;;;12.90;99.90;;;;;;5056309;28;20648;-81
2021/05/22 08:15:19;;;;;;;15.90;2.00;;;13.00;99.90;;;;;;5073718;28;20295;-82
2021/05/22 08:17:45;;;;;;;19.13;2.50;;;13.10;99.90;;;;;;5061422;28;20222;-82
2021/05/22 08:20:11;;;;;;;13.60;2.10;;;13.10;99.90;;;;;;5058395;28;20542;-82
2021/05/22 08:22:38;;;;;;;13.33;1.93;;;13.10;99.90;;;;;;5073769;28;20214;-82
2021/05/22 08:25:06;;;;;;;16.03;2.80;;;13.00;99.90;;;;;;5075047;28;20196;-87
2021/05/22 08:27:33;;;;;;;11.37;1.73;;;13.10;99.90;;;;;;5059393;28;20211;-86
2021/05/22 08:29:59;;;;;;;12.30;1.80;;;13.20;99.90;;;;;;5058453;28;20192;-87
2021/05/22 08:32:26;;;;;;;10.57;2.00;;;13.20;99.90;;;;;;5077078;28;20185;-86
2021/05/22 08:34:53;;;;;;;10.37;2.03;;;13.40;99.90;;;;;;5062026;28;20216;-87
2021/05/22 08:37:20;;;;;;;11.47;1.77;;;13.50;99.90;;;;;;5093612;28;20723;-86
2021/05/22 08:39:47;;;;;;;12.30;2.23;;;13.50;99.90;;;;;;5060247;28;20181;-87
2021/05/22 08:42:18;;;;;;;11.00;2.10;;;13.50;99.90;;;;;;5065563;28;20192;-85
2021/05/22 08:44:44;;;;;;;15.10;1.90;;;13.60;99.90;;;;;;5060374;28;20275;-85
2021/05/22 08:47:11;;;;;;;11.97;1.90;;;13.80;99.90;;;;;;5061579;28;20285;-86
2021/05/22 08:49:41;;;;;;;14.27;2.27;;;13.70;99.90;;;;;;5060096;28;20192;-86
2021/05/22 08:52:13;;;;;;;12.47;2.20;;;13.70;99.90;;;;;;5057588;28;20199;-86
2021/05/22 08:54:39;;;;;;;13.37;2.20;;;13.60;99.90;;;;;;5059798;28;20578;-85
2021/05/22 08:57:06;;;;;;;9.53;2.07;;;13.60;99.90;;;;;;5062082;28;20175;-86
2021/05/22 08:59:33;;;;;;;18.07;2.50;;;13.60;99.90;;;;;;5081407;28;20708;-83
2021/05/22 09:01:59;;;;;;;9.90;1.90;;;13.70;99.90;;;;;;5076625;28;20228;-82
2021/05/22 09:04:24;;;;;;;14.83;2.40;;;13.90;99.90;;;;;;5077831;28;20185;-84
2021/05/22 09:07:02;;;;;;;12.47;2.23;;;13.90;99.90;;;;;;5084832;28;20252;-84
2021/05/22 09:09:43;;;;;;;13.37;2.30;;;14.00;99.90;;;;;;5084235;28;20208;-84
2021/05/22 09:12:10;;;;;;;14.17;2.40;;;14.10;99.90;;;;;;5080420;28;20241;-84
2021/05/22 09:14:51;;;;;;;14.10;2.90;;;14.20;99.90;;;;;;5071297;28;20223;-83
2021/05/22 09:17:17;;;;;;;13.90;2.87;;;14.10;99.90;;;;;;5076189;28;20186;-84
2021/05/22 09:19:43;;;;;;;11.77;2.20;;;14.10;99.90;;;;;;5072788;28;20282;-84
2021/05/22 09:22:20;;;;;;;12.67;2.77;;;14.10;99.90;;;;;;5073918;28;20208;-84
2021/05/22 09:24:56;;;;;;;13.60;2.50;;;14.10;99.90;;;;;;5054345;28;20316;-84
2021/05/22 09:27:23;;;;;;;13.50;2.60;;;14.30;99.90;;;;;;5073892;28;20224;-84
2021/05/22 09:29:49;;;;;;;13.50;2.53;;;14.50;99.90;;;;;;5076635;28;20592;-83
2021/05/22 09:32:16;;;;;;;9.00;2.10;;;14.60;99.90;;;;;;5072088;28;20271;-84
2021/05/22 09:34:41;;;;;;;12.17;2.40;;;14.80;99.90;;;;;;5077169;28;20292;-84
2021/05/22 09:37:11;;;;;;;10.27;2.27;;;15.00;99.90;;;;;;5078852;28;20353;-84
2021/05/22 09:39:48;;;;;;;13.17;2.67;;;15.10;99.90;;;;;;5057431;28;20190;-84
2021/05/22 09:42:15;;;;;;;17.23;2.40;;;15.20;99.90;;;;;;5059076;28;20256;-84
2021/05/22 09:44:40;;;;;;;12.03;1.90;;;15.30;99.90;;;;;;5071417;28;20190;-82
2021/05/22 09:47:07;;;;;;;9.47;2.23;;;15.30;99.90;;;;;;5056652;28;20191;-81
2021/05/22 09:49:37;;;;;;;14.03;2.43;;;15.30;99.90;;;;;;5075777;28;20182;-85
2021/05/22 09:52:12;;;;;;;14.73;2.40;;;15.40;99.90;;;;;;5055987;28;20200;-82
2021/05/22 09:54:51;;;;;;;10.20;1.97;;;15.40;99.90;;;;;;5072513;28;20198;-88
2021/05/22 09:57:19;;;;;;;11.50;2.00;;;15.30;99.90;;;;;;5073870;28;20186;-91
2021/05/22 10:00:18;;;;;;;12.33;2.30;;;15.20;99.90;;;;;;5055677;28;20196;-89
2021/05/22 10:03:05;;;;;;;13.57;2.40;;;15.20;99.90;;;;;;5053647;28;20243;-84
2021/05/22 10:05:33;;;;;;;12.70;2.70;;;15.30;99.90;;;;;;5075752;28;20207;-86
2021/05/22 10:08:00;;;;;;;10.90;2.47;;;15.40;99.90;;;;;;5056801;28;20180;-86
2021/05/22 10:10:41;;;;;;;14.37;2.67;;;15.30;99.90;;;;;;5058290;28;20186;-85
2021/05/22 10:13:08;;;;;;;14.13;2.50;;;15.10;99.90;;;;;;5056629;28;20608;-85
2021/05/22 10:15:34;;;;;;;13.77;2.70;;;15.20;99.90;;;;;;5057112;28;20652;-85
2021/05/22 10:18:00;;;;;;;11.43;2.33;;;15.00;99.90;;;;;;5091538;28;20185;-85
2021/05/22 10:20:25;;;;;;;17.40;2.40;;;15.00;99.90;;;;;;5057042;28;20174;-84
2021/05/22 10:22:51;;;;;;;13.37;2.33;;;14.70;99.90;;;;;;5056576;28;20200;-85
2021/05/22 10:25:20;;;;;;;15.23;3.40;;;14.70;99.90;;;;;;5053641;28;20190;-86
2021/05/22 10:27:47;;;;;;;11.77;2.33;;;14.70;99.90;;;;;;5056792;28;20186;-85
2021/05/22 10:30:13;;;;;;;13.83;2.60;;;14.80;99.90;;;;;;5057392;28;20638;-87
2021/05/22 10:32:40;;;;;;;12.60;2.80;;;14.90;99.90;;;;;;5070054;28;20191;-88
2021/05/22 10:35:11;;;;;;;12.30;2.60;;;14.90;99.90;;;;;;5076849;28;20199;-87
2021/05/22 10:37:50;;;;;;;14.83;3.03;;;14.80;99.90;;;;;;5060206;28;20775;-87
2021/05/22 10:40:18;;;;;;;16.93;3.60;;;14.70;99.90;;;;;;5059832;28;20272;-87
2021/05/22 10:42:46;;;;;;;14.57;2.90;;;14.70;99.90;;;;;;5066224;28;20237;-88
2021/05/22 10:45:28;;;;;;;13.47;2.87;;;14.70;99.90;;;;;;5056273;28;20222;-87
2021/05/22 10:47:55;;;;;;;14.90;3.10;;;14.80;99.90;;;;;;5066209;28;20554;-87
2021/05/22 10:50:44;;;;;;;24.30;4.23;;;14.80;99.90;;;;;;5071828;28;20186;-87
2021/05/22 10:53:22;;;;;;;11.57;2.97;;;15.00;99.90;;;;;;5072648;28;20666;-88
2021/05/22 10:56:17;;;;;;;18.83;3.00;;;15.20;99.90;;;;;;5068638;28;20708;-87
2021/05/22 10:58:58;;;;;;;53.40;6.83;;;15.40;99.90;;;;;;5060350;28;20203;-87
2021/05/22 11:01:24;;;;;;;13.43;2.50;;;15.70;99.90;;;;;;5056532;28;20219;-89
2021/05/22 11:04:13;;;;;;;12.77;2.20;;;15.90;99.90;;;;;;5058125;28;20230;-89
2021/05/22 11:06:45;;;;;;;59.63;7.10;;;16.00;99.90;;;;;;5056349;28;20612;-89
2021/05/22 11:09:26;;;;;;;10.23;2.40;;;15.60;99.90;;;;;;5090168;28;20190;-89
2021/05/22 11:12:17;;;;;;;23.80;2.97;;;15.60;99.90;;;;;;5075922;28;20180;-89
2021/05/22 11:14:50;;;;;;;22.73;3.53;;;15.80;99.90;;;;;;5033741;28;20566;-89
2021/05/22 11:17:19;;;;;;;11.80;2.30;;;15.70;99.90;;;;;;5072683;28;20183;-89
2021/05/22 11:20:00;;;;;;;8.87;1.90;;;15.70;99.90;;;;;;5075552;28;20179;-88
2021/05/22 11:22:32;;;;;;;7.07;1.90;;;15.40;99.90;;;;;;5062121;28;20183;-88
2021/05/22 11:25:09;;;;;;;6.13;1.93;;;15.40;99.90;;;;;;5094056;28;20271;-88
2021/05/22 11:27:44;;;;;;;10.33;2.30;;;15.40;99.90;;;;;;5077234;28;20179;-89
2021/05/22 11:30:11;;;;;;;10.00;2.10;;;15.70;99.90;;;;;;5058957;28;20219;-88
2021/05/22 11:32:45;;;;;;;10.53;1.80;;;15.90;99.90;;;;;;5061836;28;20188;-87
2021/05/22 11:37:56;;;;;;;13.00;2.20;;;16.10;99.90;;;;;;5077029;28;20306;-88
2021/05/22 11:40:40;;;;;;;11.70;2.37;;;16.00;99.90;;;;;;5062917;28;20262;-89
2021/05/22 11:43:15;;;;;;;7.90;1.80;;;16.00;99.90;;;;;;5053919;28;20528;-88
2021/05/22 11:45:55;;;;;;;21.90;3.27;;;15.70;99.90;;;;;;5064360;28;20188;-88
2021/05/22 11:48:35;;;;;;;35.53;4.77;;;15.50;99.90;;;;;;5058984;28;20319;-88
2021/05/22 11:51:25;;;;;;;10.50;2.93;;;15.50;99.90;;;;;;5077106;28;20240;-88
2021/05/22 11:54:03;;;;;;;29.23;4.80;;;15.50;99.90;;;;;;5056509;28;20183;-88
2021/05/22 11:56:40;;;;;;;37.03;5.20;;;15.30;99.90;;;;;;5063584;28;20628;-88
2021/05/22 11:59:07;;;;;;;67.83;7.27;;;15.50;99.90;;;;;;5056810;28;20555;-88
2021/05/22 12:01:37;;;;;;;10.40;2.30;;;15.30;99.90;;;;;;5061249;28;20183;-90
2021/05/22 12:04:07;;;;;;;38.13;5.63;;;15.40;99.90;;;;;;5058610;28;20225;-90
2021/05/22 12:06:41;;;;;;;39.67;4.53;;;15.20;99.90;;;;;;5059581;28;20677;-89
2021/05/22 12:09:10;;;;;;;10.07;2.10;;;14.90;99.90;;;;;;5061587;28;20199;-88
2021/05/22 12:11:41;;;;;;;46.90;5.80;;;14.50;99.90;;;;;;5077201;28;20217;-89
2021/05/22 12:14:08;;;;;;;15.83;2.60;;;14.30;99.90;;;;;;5058277;28;20179;-88
2021/05/22 12:16:34;;;;;;;10.90;2.27;;;14.30;99.90;;;;;;5060564;28;20178;-89
2021/05/22 12:19:15;;;;;;;9.70;1.93;;;14.30;99.90;;;;;;5058701;28;20183;-89
2021/05/22 12:21:46;;;;;;;10.40;1.83;;;14.10;99.90;;;;;;5063547;28;20175;-89
2021/05/22 12:24:12;;;;;;;8.20;1.80;;;14.00;99.90;;;;;;5055639;28;20184;-88
2021/05/22 12:26:45;;;;;;;9.73;2.00;;;14.10;99.90;;;;;;5079743;28;20175;-88
2021/05/22 12:29:10;;;;;;;6.80;1.70;;;14.20;99.90;;;;;;5066738;28;20254;-87
2021/05/22 12:31:36;;;;;;;7.60;1.80;;;14.20;99.90;;;;;;5059866;28;20722;-89
2021/05/22 12:34:06;;;;;;;6.60;1.90;;;14.10;99.90;;;;;;5059608;28;20188;-89
2021/05/22 12:36:34;;;;;;;6.63;1.77;;;14.30;99.90;;;;;;5075224;28;20710;-90
2021/05/22 12:39:13;;;;;;;7.60;1.80;;;14.10;99.90;;;;;;5059721;28;20186;-90
2021/05/22 12:41:39;;;;;;;6.63;1.83;;;13.70;99.90;;;;;;5059444;28;20189;-88
2021/05/22 12:44:08;;;;;;;9.60;1.93;;;13.60;99.90;;;;;;5060728;28;20190;-89
2021/05/22 12:46:45;;;;;;;9.83;1.70;;;13.70;99.90;;;;;;5059597;28;20181;-87